LVFWZ SADF-SAAR
Flight info
| Callsign | LVFWZ |
|---|---|
| Flight time | N/A |
| Altitude | 10000 |
| Route | ATOVO W5 ESKON |
| Aircraft | PA31/L-SDFGRY/S |
Departure
| Time | 2026-05-06 21:55 |
|---|---|
| Airport | San Fernando Airport (SADF) |
Arrival
| Time | N/A |
|---|---|
| Airport | Rosario Islas Malvinas International Airport (SAAR) |
| Time | Latitude | Longitude | Altitude | Speed | Heading |
|---|---|---|---|---|---|
| 2026-05-06 21:37 | -34.45430 | -58.58030 | 12 ft | 0 kts | 335° |
| 2026-05-06 21:46 | -34.45397 | -58.58051 | 12 ft | 5 kts | 330° |
| 2026-05-06 21:46 | -34.45381 | -58.58061 | 12 ft | 0 kts | 325° |
| 2026-05-06 21:46 | -34.45375 | -58.58085 | 12 ft | 3 kts | 246° |
| 2026-05-06 21:47 | -34.45408 | -58.58162 | 12 ft | 17 kts | 242° |
| 2026-05-06 21:47 | -34.45463 | -58.58281 | 12 ft | 12 kts | 242° |
| 2026-05-06 21:47 | -34.45493 | -58.58353 | 12 ft | 8 kts | 248° |
| 2026-05-06 21:47 | -34.45510 | -58.58395 | 12 ft | 2 kts | 244° |
| 2026-05-06 21:48 | -34.45523 | -58.58429 | 12 ft | 10 kts | 245° |
| 2026-05-06 21:48 | -34.45567 | -58.58535 | 12 ft | 15 kts | 229° |
| 2026-05-06 21:48 | -34.45606 | -58.58622 | 12 ft | 8 kts | 244° |
| 2026-05-06 21:48 | -34.45623 | -58.58663 | 12 ft | 4 kts | 246° |
| 2026-05-06 21:49 | -34.45658 | -58.58740 | 12 ft | 13 kts | 238° |
| 2026-05-06 21:49 | -34.45689 | -58.58812 | 12 ft | 6 kts | 243° |
| 2026-05-06 21:49 | -34.45698 | -58.58834 | 12 ft | 0 kts | 244° |
| 2026-05-06 21:49 | -34.45711 | -58.58869 | 12 ft | 11 kts | 244° |
| 2026-05-06 21:50 | -34.45751 | -58.58956 | 12 ft | 8 kts | 242° |
| 2026-05-06 21:50 | -34.45774 | -58.59013 | 12 ft | 6 kts | 245° |
| 2026-05-06 21:50 | -34.45813 | -58.59110 | 12 ft | 18 kts | 240° |
| 2026-05-06 21:50 | -34.45866 | -58.59223 | 12 ft | 11 kts | 243° |
| 2026-05-06 21:51 | -34.45899 | -58.59306 | 12 ft | 14 kts | 245° |
| 2026-05-06 21:51 | -34.45959 | -58.59432 | 12 ft | 14 kts | 242° |
| 2026-05-06 21:51 | -34.45994 | -58.59517 | 12 ft | 8 kts | 244° |
| 2026-05-06 21:51 | -34.46025 | -58.59585 | 12 ft | 6 kts | 247° |
| 2026-05-06 21:52 | -34.46029 | -58.59601 | 12 ft | 0 kts | 255° |
| 2026-05-06 21:52 | -34.46029 | -58.59602 | 12 ft | 0 kts | 255° |
| 2026-05-06 21:53 | -34.46017 | -58.59655 | 12 ft | 10 kts | 315° |
| 2026-05-06 21:53 | -34.45961 | -58.59679 | 12 ft | 12 kts | 25° |
| 2026-05-06 21:53 | -34.45937 | -58.59655 | 12 ft | 2 kts | 53° |
| 2026-05-06 21:53 | -34.45722 | -58.59403 | 12 ft | 76 kts | 47° |
| 2026-05-06 21:54 | -34.45255 | -58.58850 | 32 ft | 103 kts | 39° |
| 2026-05-06 21:54 | -34.44741 | -58.58264 | 248 ft | 104 kts | 47° |
| 2026-05-06 21:54 | -34.44241 | -58.57581 | 428 ft | 112 kts | 49° |
| 2026-05-06 21:54 | -34.43726 | -58.56747 | 491 ft | 130 kts | 52° |
| 2026-05-06 21:55 | -34.43206 | -58.55803 | 619 ft | 137 kts | 54° |
| 2026-05-06 21:55 | -34.42713 | -58.54808 | 852 ft | 136 kts | 56° |
| 2026-05-06 21:55 | -34.42295 | -58.53794 | 1074 ft | 136 kts | 60° |
| 2026-05-06 21:55 | -34.41939 | -58.52721 | 1269 ft | 139 kts | 63° |
| 2026-05-06 21:56 | -34.41645 | -58.51587 | 1382 ft | 146 kts | 65° |
| 2026-05-06 21:56 | -34.41354 | -58.50395 | 1537 ft | 148 kts | 64° |
| 2026-05-06 21:56 | -34.41091 | -58.49185 | 1676 ft | 151 kts | 65° |
| 2026-05-06 21:56 | -34.40838 | -58.47918 | 1719 ft | 159 kts | 65° |
| 2026-05-06 21:57 | -34.40533 | -58.46617 | 1735 ft | 164 kts | 64° |
| 2026-05-06 21:57 | -34.40241 | -58.45297 | 1766 ft | 168 kts | 67° |
| 2026-05-06 21:57 | -34.39946 | -58.43915 | 1855 ft | 162 kts | 65° |
| 2026-05-06 21:57 | -34.39628 | -58.42623 | 1756 ft | 166 kts | 62° |
| 2026-05-06 21:58 | -34.39254 | -58.41349 | 1906 ft | 152 kts | 61° |
| 2026-05-06 21:58 | -34.38878 | -58.40140 | 1771 ft | 161 kts | 56° |
| 2026-05-06 21:58 | -34.38301 | -58.38888 | 1356 ft | 176 kts | 53° |
| 2026-05-06 21:58 | -34.37763 | -58.37626 | 1400 ft | 167 kts | 57° |
| 2026-05-06 21:59 | -34.37290 | -58.36356 | 1430 ft | 158 kts | 58° |
| 2026-05-06 21:59 | -34.36890 | -58.35249 | 1612 ft | 147 kts | 59° |
| 2026-05-06 21:59 | -34.36610 | -58.34208 | 2018 ft | 127 kts | 59° |
| 2026-05-06 21:59 | -34.36321 | -58.33159 | 2051 ft | 131 kts | 56° |
| 2026-05-06 22:00 | -34.35899 | -58.32438 | 2523 ft | 86 kts | 15° |
| 2026-05-06 22:00 | -34.35292 | -58.32293 | 2426 ft | 110 kts | 356° |
| 2026-05-06 22:00 | -34.34543 | -58.32492 | 2719 ft | 91 kts | 333° |
| 2026-05-06 22:00 | -34.34337 | -58.32804 | 3436 ft | 36 kts | 319° |
| 2026-05-06 22:01 | -34.33991 | -58.32855 | 3432 ft | 60 kts | 348° |
| 2026-05-06 22:01 | -34.33598 | -58.33084 | 3613 ft | 71 kts | 326° |
| 2026-05-06 22:01 | -34.33214 | -58.33506 | 3788 ft | 79 kts | 324° |
| 2026-05-06 22:01 | -34.32784 | -58.33964 | 3959 ft | 84 kts | 330° |
| 2026-05-06 22:02 | -34.32265 | -58.34313 | 4129 ft | 88 kts | 330° |
| 2026-05-06 22:02 | -34.31745 | -58.34763 | 4301 ft | 93 kts | 325° |
| 2026-05-06 22:02 | -34.31285 | -58.35346 | 4473 ft | 100 kts | 313° |
| 2026-05-06 22:02 | -34.30871 | -58.36017 | 4642 ft | 101 kts | 314° |
| 2026-05-06 22:03 | -34.30400 | -58.36648 | 4803 ft | 100 kts | 329° |
| 2026-05-06 22:03 | -34.29838 | -58.37161 | 4975 ft | 103 kts | 318° |
| 2026-05-06 22:03 | -34.29431 | -58.37891 | 5139 ft | 109 kts | 305° |
| 2026-05-06 22:03 | -34.29240 | -58.38820 | 5308 ft | 115 kts | 294° |
| 2026-05-06 22:04 | -34.29080 | -58.39751 | 5470 ft | 118 kts | 289° |
| 2026-05-06 22:04 | -34.28910 | -58.40690 | 5639 ft | 109 kts | 306° |
| 2026-05-06 22:04 | -34.28508 | -58.41454 | 5805 ft | 106 kts | 311° |
| 2026-05-06 22:04 | -34.28135 | -58.42230 | 5972 ft | 109 kts | 307° |
| 2026-05-06 22:05 | -34.27698 | -58.42960 | 6136 ft | 105 kts | 317° |
| 2026-05-06 22:05 | -34.27292 | -58.43712 | 6303 ft | 108 kts | 308° |
| 2026-05-06 22:05 | -34.27053 | -58.44605 | 6467 ft | 110 kts | 301° |
| 2026-05-06 22:05 | -34.26876 | -58.45519 | 6631 ft | 114 kts | 294° |
| 2026-05-06 22:06 | -34.26667 | -58.46432 | 6786 ft | 111 kts | 300° |
| 2026-05-06 22:06 | -34.26461 | -58.47328 | 6945 ft | 113 kts | 295° |
| 2026-05-06 22:06 | -34.26205 | -58.48204 | 7102 ft | 110 kts | 301° |
| 2026-05-06 22:06 | -34.25955 | -58.49082 | 7266 ft | 112 kts | 297° |
| 2026-05-06 22:07 | -34.25741 | -58.49968 | 7417 ft | 106 kts | 311° |
| 2026-05-06 22:07 | -34.25288 | -58.50649 | 7586 ft | 104 kts | 313° |
| 2026-05-06 22:07 | -34.24882 | -58.51375 | 7757 ft | 106 kts | 303° |
| 2026-05-06 22:07 | -34.24703 | -58.52253 | 7923 ft | 110 kts | 292° |